Time;durP1;ratioP1;P1;durP2;ratioP2;P2;SDS_P1;SDS_P2;PMS_P1;PMS_P2;Temp;Humidity;BMP_temperature;BMP_pressure;BME280_temperature;BME280_humidity;BME280_pressure;Samples;Min_cycle;Max_cycle;Signal;HPM_P1;HPM_P2
2022/06/29 00:00:25;;;;;;;17.47;6.23;;;25.40;79.20;;;;;;5017283;28;20670;-81
2022/06/29 00:02:54;;;;;;;18.73;8.10;;;25.30;79.30;;;;;;5021896;28;20805;-80
2022/06/29 00:05:23;;;;;;;21.43;7.10;;;25.30;79.50;;;;;;5006283;28;20700;-80
2022/06/29 00:07:51;;;;;;;16.20;6.33;;;25.30;79.60;;;;;;5030712;28;20215;-82
2022/06/29 00:10:20;;;;;;;18.47;7.17;;;25.30;79.70;;;;;;5036555;28;20285;-80
2022/06/29 00:12:48;;;;;;;15.70;7.70;;;25.30;79.60;;;;;;5017480;28;20227;-80
2022/06/29 00:15:17;;;;;;;18.60;7.87;;;25.20;79.50;;;;;;5016831;28;20220;-81
2022/06/29 00:17:45;;;;;;;17.47;7.07;;;25.20;79.50;;;;;;5033074;28;20300;-80
2022/06/29 00:20:13;;;;;;;14.23;6.60;;;25.20;79.50;;;;;;5033782;28;20219;-80
2022/06/29 00:22:43;;;;;;;22.43;7.40;;;25.10;80.10;;;;;;5027863;28;20246;-80
2022/06/29 00:25:11;;;;;;;19.67;6.67;;;25.10;79.50;;;;;;5016851;28;20254;-80
2022/06/29 00:27:39;;;;;;;16.87;6.17;;;25.00;79.40;;;;;;5030238;28;20295;-79
2022/06/29 00:30:07;;;;;;;18.17;6.90;;;25.00;79.40;;;;;;5017313;28;20210;-79
2022/06/29 00:32:35;;;;;;;15.13;5.83;;;25.00;79.50;;;;;;5014540;28;20209;-79
2022/06/29 00:35:02;;;;;;;16.80;6.40;;;24.90;79.60;;;;;;5017372;28;20215;-80
2022/06/29 00:37:30;;;;;;;18.37;6.30;;;24.90;79.80;;;;;;5017199;28;20238;-79
2022/06/29 00:39:57;;;;;;;19.73;7.27;;;24.90;80.00;;;;;;5014143;28;20192;-79
2022/06/29 00:42:27;;;;;;;23.17;6.03;;;24.80;80.10;;;;;;5016097;28;20258;-80
2022/06/29 00:44:56;;;;;;;24.13;8.03;;;24.80;80.20;;;;;;5017629;28;20692;-79
2022/06/29 00:47:23;;;;;;;13.57;5.63;;;24.80;80.40;;;;;;5020886;28;20208;-80
2022/06/29 00:49:51;;;;;;;11.00;6.40;;;24.80;80.60;;;;;;5018400;28;20200;-79
2022/06/29 00:52:22;;;;;;;16.40;7.07;;;24.80;80.80;;;;;;5018697;28;20215;-80
2022/06/29 00:54:56;;;;;;;14.87;6.60;;;24.70;80.90;;;;;;5020634;28;20639;-79
2022/06/29 00:57:25;;;;;;;12.00;6.80;;;24.70;81.20;;;;;;5016776;28;20191;-80
2022/06/29 00:59:55;;;;;;;13.23;7.03;;;24.70;81.30;;;;;;5015914;28;20576;-79
2022/06/29 01:02:25;;;;;;;15.90;7.27;;;24.70;81.40;;;;;;5003157;28;20246;-79
2022/06/29 01:04:52;;;;;;;21.20;7.37;;;24.70;81.50;;;;;;5016605;28;20204;-80
2022/06/29 01:07:23;;;;;;;13.33;7.73;;;24.70;81.40;;;;;;5016007;28;20316;-80
2022/06/29 01:09:50;;;;;;;15.20;6.57;;;24.70;81.30;;;;;;5012894;28;20886;-80
2022/06/29 01:12:18;;;;;;;12.17;7.37;;;24.70;81.20;;;;;;5016468;28;20200;-79
2022/06/29 01:14:47;;;;;;;15.27;6.67;;;24.70;81.00;;;;;;5017769;28;20273;-79
2022/06/29 01:17:17;;;;;;;14.27;6.57;;;24.70;80.80;;;;;;5028279;28;20322;-80
2022/06/29 01:19:44;;;;;;;10.77;6.03;;;24.60;80.50;;;;;;5028421;28;20221;-79
2022/06/29 01:22:18;;;;;;;10.63;6.40;;;24.60;80.40;;;;;;5015678;28;20247;-80
2022/06/29 01:24:47;;;;;;;9.53;5.43;;;24.50;80.30;;;;;;5026578;28;20551;-79
2022/06/29 01:27:18;;;;;;;13.13;6.37;;;24.50;80.20;;;;;;5032936;28;20303;-80
2022/06/29 01:29:46;;;;;;;14.20;6.17;;;24.50;80.20;;;;;;5013405;28;20203;-80
2022/06/29 01:32:15;;;;;;;12.90;6.03;;;24.40;80.10;;;;;;5015849;28;20210;-79
2022/06/29 01:34:43;;;;;;;15.97;6.00;;;24.40;80.10;;;;;;4996680;28;20294;-80
2022/06/29 01:37:11;;;;;;;14.47;6.23;;;24.30;80.80;;;;;;5022295;28;20231;-80
2022/06/29 01:39:39;;;;;;;14.37;5.93;;;24.30;80.10;;;;;;5025923;28;20215;-80
2022/06/29 01:42:08;;;;;;;8.60;5.90;;;24.30;80.20;;;;;;5019964;28;20218;-80
2022/06/29 01:44:36;;;;;;;11.67;6.17;;;24.20;80.20;;;;;;5006045;28;20195;-80
2022/06/29 01:47:04;;;;;;;12.30;5.87;;;24.20;80.30;;;;;;5010340;28;20205;-80
2022/06/29 01:49:32;;;;;;;14.53;6.80;;;24.10;80.30;;;;;;5012506;28;20667;-79
2022/06/29 01:51:59;;;;;;;14.80;6.60;;;24.10;80.30;;;;;;5015421;28;20204;-80
2022/06/29 01:54:26;;;;;;;10.73;6.27;;;24.10;80.40;;;;;;5011853;28;20215;-80
2022/06/29 01:56:53;;;;;;;15.17;6.57;;;24.10;80.40;;;;;;5015417;28;20336;-79
2022/06/29 01:59:20;;;;;;;12.57;6.60;;;24.10;80.50;;;;;;5029285;28;20563;-80
2022/06/29 02:01:48;;;;;;;12.30;6.60;;;24.00;80.80;;;;;;5027659;28;20667;-80
2022/06/29 02:04:17;;;;;;;20.53;6.97;;;24.00;80.70;;;;;;5014767;28;20324;-79
2022/06/29 02:06:45;;;;;;;17.13;7.50;;;24.00;80.90;;;;;;5028154;28;20255;-79
2022/06/29 02:09:12;;;;;;;14.00;6.87;;;24.00;81.10;;;;;;4998368;28;20208;-79
2022/06/29 02:11:39;;;;;;;13.27;6.87;;;24.00;81.30;;;;;;5023067;28;20215;-81
2022/06/29 02:14:07;;;;;;;14.23;7.17;;;23.90;81.40;;;;;;5014833;28;20211;-80
2022/06/29 02:16:34;;;;;;;11.13;7.03;;;23.90;81.60;;;;;;4999782;28;20302;-79
2022/06/29 02:19:02;;;;;;;17.63;7.13;;;23.90;81.80;;;;;;5035648;28;20207;-81
2022/06/29 02:21:29;;;;;;;12.67;6.50;;;23.80;81.80;;;;;;5013619;28;20235;-81
2022/06/29 02:23:57;;;;;;;10.17;5.50;;;23.80;82.00;;;;;;5031764;28;20204;-80
2022/06/29 02:26:24;;;;;;;18.60;7.10;;;23.80;82.10;;;;;;5023385;28;20208;-80
2022/06/29 02:28:51;;;;;;;13.77;6.13;;;23.70;82.10;;;;;;5019881;28;20205;-80
2022/06/29 02:36:49;;;;;;;12.63;4.97;;;23.70;82.20;;;;;;5016681;28;20271;-80
2022/06/29 02:39:17;;;;;;;11.47;4.93;;;23.70;82.30;;;;;;5021184;28;20203;-79
2022/06/29 02:41:44;;;;;;;10.23;5.17;;;23.60;82.30;;;;;;5023330;28;20224;-79
2022/06/29 02:44:11;;;;;;;12.47;4.50;;;23.60;82.30;;;;;;5006557;28;20207;-80
2022/06/29 02:46:39;;;;;;;17.73;4.17;;;23.60;82.40;;;;;;5018567;28;20208;-81
2022/06/29 02:49:06;;;;;;;14.93;4.63;;;23.50;82.30;;;;;;5002246;28;20210;-80
2022/06/29 02:51:33;;;;;;;11.80;4.73;;;23.50;82.30;;;;;;5033413;28;20208;-79
2022/06/29 02:54:01;;;;;;;13.43;4.27;;;23.50;82.40;;;;;;5029062;28;20251;-79
2022/06/29 02:56:28;;;;;;;9.90;4.67;;;23.50;82.60;;;;;;5000875;28;20235;-80
2022/06/29 02:58:55;;;;;;;9.13;4.20;;;23.40;82.60;;;;;;5017393;28;20214;-79
2022/06/29 03:01:22;;;;;;;9.57;4.10;;;23.40;82.70;;;;;;5014439;28;20211;-79
2022/06/29 03:03:49;;;;;;;15.17;4.53;;;23.40;82.90;;;;;;5020800;28;20722;-79
2022/06/29 03:06:17;;;;;;;15.10;5.13;;;23.40;83.10;;;;;;5013558;28;20808;-78
2022/06/29 03:08:44;;;;;;;13.27;4.93;;;23.30;83.40;;;;;;5016734;28;20196;-79
2022/06/29 03:11:11;;;;;;;8.37;4.30;;;23.40;83.50;;;;;;5017102;28;20283;-79
2022/06/29 03:13:38;;;;;;;9.00;5.07;;;23.40;83.70;;;;;;5016387;28;20210;-80
2022/06/29 03:16:05;;;;;;;11.50;4.43;;;23.30;83.80;;;;;;5016344;28;20314;-79
2022/06/29 03:18:33;;;;;;;13.93;4.63;;;23.30;83.90;;;;;;5017549;28;20266;-80
2022/06/29 03:21:00;;;;;;;15.90;5.07;;;23.30;84.00;;;;;;5014255;28;20212;-80
2022/06/29 03:23:27;;;;;;;12.77;4.40;;;23.30;84.10;;;;;;5016175;28;20305;-79
2022/06/29 03:25:54;;;;;;;11.43;4.67;;;23.20;84.10;;;;;;5015206;28;20204;-81
2022/06/29 03:28:22;;;;;;;12.67;4.93;;;23.20;84.20;;;;;;5024956;28;20211;-80
2022/06/29 03:30:49;;;;;;;14.20;4.80;;;23.20;84.30;;;;;;5028021;28;20215;-80
2022/06/29 03:33:16;;;;;;;13.53;4.80;;;23.20;84.40;;;;;;5014354;28;20532;-80
2022/06/29 03:35:43;;;;;;;13.97;5.53;;;23.20;84.50;;;;;;5008855;28;20205;-80
2022/06/29 03:38:10;;;;;;;9.80;4.90;;;23.20;84.60;;;;;;5016310;28;20309;-80
2022/06/29 03:40:37;;;;;;;13.37;5.40;;;23.20;84.70;;;;;;5017699;28;20242;-80
2022/06/29 03:43:05;;;;;;;15.50;5.83;;;23.20;84.80;;;;;;4994069;28;20236;-79
2022/06/29 03:45:32;;;;;;;11.87;4.77;;;23.20;84.90;;;;;;5032292;28;20204;-80
2022/06/29 03:47:59;;;;;;;16.27;5.80;;;23.20;85.00;;;;;;5008085;28;20607;-80
2022/06/29 03:50:26;;;;;;;11.77;5.57;;;23.20;85.00;;;;;;5015380;28;20207;-79
2022/06/29 03:52:54;;;;;;;17.50;5.87;;;23.10;85.00;;;;;;5015901;28;20250;-80
2022/06/29 03:55:21;;;;;;;14.93;6.13;;;23.20;85.10;;;;;;5003792;28;20339;-79
2022/06/29 03:57:48;;;;;;;14.43;7.87;;;23.10;85.10;;;;;;5011545;28;20216;-80
2022/06/29 04:00:16;;;;;;;17.67;6.23;;;23.10;85.00;;;;;;5016814;28;20644;-80
2022/06/29 04:02:44;;;;;;;11.23;5.60;;;23.10;84.90;;;;;;4999744;28;20559;-80
2022/06/29 04:05:11;;;;;;;8.53;5.37;;;23.20;84.90;;;;;;5015263;28;20687;-78
2022/06/29 04:07:38;;;;;;;10.70;5.23;;;23.20;84.90;;;;;;5015700;28;20230;-80
2022/06/29 04:10:06;;;;;;;12.13;5.43;;;23.20;84.70;;;;;;5015489;28;20591;-79
2022/06/29 04:12:35;;;;;;;15.57;7.10;;;23.10;84.60;;;;;;5015320;28;20204;-80
2022/06/29 04:15:07;;;;;;;16.33;6.13;;;23.20;84.60;;;;;;5032578;28;20258;-80
2022/06/29 04:17:34;;;;;;;16.80;5.90;;;23.20;84.40;;;;;;5017996;28;20218;-80
2022/06/29 04:20:05;;;;;;;11.90;6.80;;;23.20;84.30;;;;;;5003764;28;20307;-79
2022/06/29 04:22:32;;;;;;;12.80;6.80;;;23.20;84.20;;;;;;5015517;28;20659;-80
2022/06/29 04:25:00;;;;;;;11.87;6.47;;;23.20;84.20;;;;;;5013817;28;20690;-79
2022/06/29 04:27:27;;;;;;;14.90;6.57;;;23.20;84.20;;;;;;5031602;28;20578;-80
2022/06/29 04:29:55;;;;;;;9.40;6.03;;;23.20;84.10;;;;;;5024179;28;20624;-80
2022/06/29 04:32:22;;;;;;;17.77;6.93;;;23.30;84.10;;;;;;5010328;28;20208;-80
2022/06/29 04:34:52;;;;;;;11.37;6.17;;;23.30;84.00;;;;;;4990301;28;20223;-80
2022/06/29 04:37:19;;;;;;;15.37;6.27;;;23.30;83.90;;;;;;5030021;28;20196;-80
2022/06/29 04:39:46;;;;;;;9.23;6.97;;;23.40;83.90;;;;;;5015049;28;20294;-80
2022/06/29 04:42:14;;;;;;;13.50;6.30;;;23.50;83.70;;;;;;5016492;28;20224;-80
2022/06/29 04:44:44;;;;;;;13.20;5.87;;;23.60;83.50;;;;;;5015847;28;20192;-80
2022/06/29 04:47:11;;;;;;;11.53;6.30;;;23.60;83.30;;;;;;5005618;28;20262;-80
2022/06/29 04:49:39;;;;;;;14.10;7.07;;;23.70;83.20;;;;;;5009843;28;20192;-80
2022/06/29 04:52:06;;;;;;;13.53;6.87;;;23.80;83.00;;;;;;5016077;28;20642;-82
2022/06/29 04:54:40;;;;;;;10.23;6.47;;;23.80;82.80;;;;;;5023259;28;20239;-80
2022/06/29 04:57:08;;;;;;;15.00;6.17;;;23.90;82.60;;;;;;5015184;28;20203;-80
2022/06/29 04:59:36;;;;;;;11.20;6.00;;;24.00;82.60;;;;;;5025647;28;20596;-80
2022/06/29 05:02:03;;;;;;;11.27;5.70;;;24.00;82.40;;;;;;5014882;28;20219;-80
2022/06/29 05:04:31;;;;;;;10.30;5.67;;;24.10;82.10;;;;;;5013593;28;20200;-81
2022/06/29 05:06:58;;;;;;;9.57;5.73;;;24.20;81.80;;;;;;5013924;28;20287;-79
2022/06/29 05:09:26;;;;;;;13.97;6.33;;;24.30;81.10;;;;;;5006645;28;20192;-79
2022/06/29 05:11:53;;;;;;;14.97;5.50;;;24.50;80.70;;;;;;5029435;28;20218;-80
2022/06/29 05:14:21;;;;;;;9.90;5.33;;;24.60;80.40;;;;;;5014099;28;20209;-80
2022/06/29 05:16:48;;;;;;;9.10;5.57;;;24.70;80.60;;;;;;5012154;28;20597;-79
2022/06/29 05:19:15;;;;;;;16.03;6.43;;;24.80;79.30;;;;;;5011146;28;20809;-79
2022/06/29 05:21:46;;;;;;;11.87;5.37;;;24.90;78.90;;;;;;5010626;28;20202;-80
2022/06/29 05:24:13;;;;;;;9.43;5.17;;;25.00;78.20;;;;;;5026286;28;20204;-80
2022/06/29 05:26:42;;;;;;;9.50;4.87;;;25.00;77.70;;;;;;5030283;28;20223;-80
2022/06/29 05:29:09;;;;;;;13.07;5.70;;;25.00;77.40;;;;;;5001621;28;20204;-80
2022/06/29 05:31:37;;;;;;;7.70;4.17;;;25.00;77.20;;;;;;5023734;28;20527;-80
2022/06/29 05:34:04;;;;;;;11.10;4.50;;;24.90;77.20;;;;;;4993362;28;20205;-79
2022/06/29 05:36:31;;;;;;;16.57;5.07;;;24.90;77.30;;;;;;5013955;28;20212;-80
2022/06/29 05:38:58;;;;;;;12.50;5.00;;;24.80;77.40;;;;;;5029997;28;20191;-79
2022/06/29 05:41:26;;;;;;;10.50;4.07;;;24.80;77.10;;;;;;5006110;28;20262;-80
2022/06/29 05:43:53;;;;;;;11.07;5.00;;;24.80;77.80;;;;;;5012215;28;20228;-80
2022/06/29 05:46:22;;;;;;;10.50;4.77;;;24.90;77.10;;;;;;5012985;28;20248;-79
2022/06/29 05:48:52;;;;;;;8.53;5.40;;;24.90;77.00;;;;;;5008506;28;20242;-80
2022/06/29 05:51:19;;;;;;;13.53;4.40;;;24.90;76.70;;;;;;5012836;28;20223;-81
2022/06/29 05:53:46;;;;;;;10.40;5.27;;;24.90;76.60;;;;;;4998057;28;20216;-79
2022/06/29 05:56:14;;;;;;;10.07;4.33;;;24.90;76.30;;;;;;5008981;28;20331;-79
2022/06/29 05:58:41;;;;;;;15.53;4.50;;;25.00;76.50;;;;;;5013597;28;20583;-81
2022/06/29 06:01:09;;;;;;;8.20;3.90;;;25.00;76.50;;;;;;5029650;28;20223;-81
2022/06/29 06:03:37;;;;;;;13.70;4.07;;;25.00;76.50;;;;;;5013976;28;20220;-79
2022/06/29 06:06:05;;;;;;;11.50;4.30;;;25.10;76.20;;;;;;5013342;28;20810;-79
2022/06/29 06:08:32;;;;;;;8.53;3.93;;;25.10;75.70;;;;;;5013493;28;20251;-80
2022/06/29 06:11:02;;;;;;;13.00;4.53;;;25.20;75.40;;;;;;4998973;28;20203;-79
2022/06/29 06:13:30;;;;;;;11.03;4.50;;;25.20;75.30;;;;;;5010189;28;20228;-80
2022/06/29 06:15:59;;;;;;;12.30;4.07;;;25.20;75.10;;;;;;5005241;28;20201;-80
2022/06/29 06:18:46;;;;;;;7.53;4.27;;;25.30;75.30;;;;;;5026509;28;20258;-80
2022/06/29 06:21:15;;;;;;;15.03;4.80;;;25.30;75.20;;;;;;5011171;28;20212;-80
2022/06/29 06:23:43;;;;;;;8.97;4.67;;;25.40;75.20;;;;;;5010990;28;20235;-80
2022/06/29 06:26:12;;;;;;;16.60;5.73;;;25.50;74.90;;;;;;5014780;28;20204;-80
2022/06/29 06:28:40;;;;;;;12.73;4.60;;;25.60;74.70;;;;;;5028537;28;20246;-79
2022/06/29 06:31:08;;;;;;;16.03;5.23;;;25.80;74.20;;;;;;5019063;28;20211;-80
2022/06/29 06:33:35;;;;;;;11.23;5.27;;;25.80;73.90;;;;;;5009501;28;20238;-79
2022/06/29 06:36:02;;;;;;;13.23;5.20;;;25.90;73.80;;;;;;5014068;28;20199;-81
2022/06/29 06:38:30;;;;;;;8.90;4.47;;;25.90;73.70;;;;;;5024770;28;20231;-80
2022/06/29 06:43:42;;;;;;;11.47;4.83;;;26.00;73.60;;;;;;5011654;28;20311;-80
2022/06/29 06:46:12;;;;;;;10.10;5.00;;;26.10;73.40;;;;;;5013373;28;20211;-80
2022/06/29 06:48:39;;;;;;;8.70;4.67;;;26.10;73.00;;;;;;5011895;28;20607;-79
2022/06/29 06:51:06;;;;;;;8.80;4.23;;;26.20;73.10;;;;;;5014366;28;20191;-80
2022/06/29 06:53:34;;;;;;;10.07;4.77;;;26.30;73.00;;;;;;4997363;28;20200;-79
2022/06/29 06:56:01;;;;;;;13.77;4.90;;;26.40;72.90;;;;;;5002260;28;20240;-81
2022/06/29 06:58:28;;;;;;;10.10;4.67;;;26.50;72.80;;;;;;5029564;28;20208;-81
2022/06/29 07:00:55;;;;;;;12.97;5.20;;;26.50;72.70;;;;;;5005172;28;20591;-81
2022/06/29 07:03:26;;;;;;;11.20;5.00;;;26.60;71.90;;;;;;5028823;28;20216;-79
2022/06/29 07:05:53;;;;;;;15.33;4.20;;;26.70;71.70;;;;;;5013945;28;20223;-80
2022/06/29 07:08:20;;;;;;;13.97;4.30;;;26.80;71.10;;;;;;5013667;28;20204;-80
2022/06/29 07:10:47;;;;;;;6.20;3.70;;;26.90;69.90;;;;;;5018480;28;20243;-80
2022/06/29 07:13:15;;;;;;;13.77;4.10;;;26.90;69.20;;;;;;5016873;28;20300;-81
2022/06/29 07:15:42;;;;;;;11.83;3.77;;;26.90;69.60;;;;;;5016341;28;20640;-82
2022/06/29 07:18:09;;;;;;;11.70;4.30;;;27.10;71.30;;;;;;5028570;28;20203;-81
2022/06/29 07:20:37;;;;;;;10.40;3.60;;;27.40;70.00;;;;;;5002711;28;20219;-80
2022/06/29 07:23:04;;;;;;;12.53;3.90;;;27.80;68.20;;;;;;5016415;28;20232;-79
2022/06/29 07:25:31;;;;;;;9.23;3.67;;;28.10;67.50;;;;;;5012771;28;20195;-79
2022/06/29 07:27:58;;;;;;;11.47;4.13;;;28.30;66.10;;;;;;5024520;28;20210;-80
2022/06/29 07:30:28;;;;;;;13.93;4.07;;;28.40;64.50;;;;;;5013674;28;20196;-82
2022/06/29 07:32:55;;;;;;;6.83;3.13;;;28.40;63.40;;;;;;5023940;28;20269;-83
2022/06/29 07:35:22;;;;;;;10.43;3.10;;;28.40;63.80;;;;;;5008642;28;20254;-81
2022/06/29 07:37:51;;;;;;;12.10;4.20;;;28.50;63.80;;;;;;5015160;28;20210;-80
2022/06/29 07:40:19;;;;;;;7.13;2.80;;;28.60;63.10;;;;;;5014448;28;20208;-81
2022/06/29 07:42:47;;;;;;;9.27;3.37;;;28.80;63.50;;;;;;5015051;28;20211;-80
2022/06/29 07:45:15;;;;;;;10.93;3.43;;;29.00;63.80;;;;;;5013832;28;20208;-81
2022/06/29 07:47:51;;;;;;;9.30;3.47;;;29.20;63.40;;;;;;5015693;28;20211;-80
2022/06/29 07:50:19;;;;;;;6.37;3.13;;;29.40;62.90;;;;;;5015307;28;20221;-80
2022/06/29 07:52:46;;;;;;;6.83;3.80;;;29.60;62.00;;;;;;5027459;28;20210;-82
2022/06/29 07:55:13;;;;;;;6.10;3.60;;;29.70;61.00;;;;;;5016876;28;20672;-82
2022/06/29 07:57:40;;;;;;;8.80;4.07;;;29.80;59.70;;;;;;5018726;28;20528;-80
2022/06/29 08:00:08;;;;;;;9.30;3.27;;;29.80;60.00;;;;;;5016717;28;20211;-81
2022/06/29 08:02:39;;;;;;;11.13;3.43;;;29.80;60.90;;;;;;5016062;28;20208;-81
2022/06/29 08:05:07;;;;;;;7.33;3.20;;;29.90;60.40;;;;;;5032944;28;20219;-82
2022/06/29 08:07:35;;;;;;;6.37;2.97;;;30.00;59.20;;;;;;5008128;28;20192;-82
2022/06/29 08:10:04;;;;;;;8.67;3.00;;;30.10;58.10;;;;;;5013516;28;20204;-83
2022/06/29 08:12:31;;;;;;;6.67;2.70;;;30.20;57.10;;;;;;5015930;28;20200;-81
2022/06/29 08:14:59;;;;;;;4.77;2.20;;;30.10;56.80;;;;;;5014620;28;20295;-80
2022/06/29 08:17:26;;;;;;;6.83;2.70;;;30.20;57.50;;;;;;5015650;28;20199;-81
2022/06/29 08:20:01;;;;;;;17.50;3.47;;;30.20;57.10;;;;;;5019721;28;20628;-82
2022/06/29 08:22:28;;;;;;;8.23;2.73;;;30.40;57.20;;;;;;5012539;28;20523;-81
2022/06/29 08:24:56;;;;;;;10.90;3.20;;;30.50;56.60;;;;;;5029725;28;20231;-81
2022/06/29 08:27:23;;;;;;;6.43;2.87;;;30.60;56.50;;;;;;5002438;28;20727;-80
2022/06/29 08:30:11;;;;;;;8.23;3.07;;;30.70;56.20;;;;;;5001574;28;20218;-81
2022/06/29 08:32:42;;;;;;;9.47;3.10;;;30.80;55.10;;;;;;5011350;28;20207;-81
2022/06/29 08:35:12;;;;;;;6.83;2.70;;;30.70;55.60;;;;;;5011582;28;20247;-82
2022/06/29 08:37:39;;;;;;;6.47;3.63;;;30.80;56.20;;;;;;5017013;28;20213;-82
2022/06/29 08:40:08;;;;;;;8.40;2.90;;;30.80;55.30;;;;;;5004997;28;20247;-81
2022/06/29 08:42:37;;;;;;;9.53;3.27;;;30.80;56.00;;;;;;5023987;28;20644;-82
2022/06/29 08:45:09;;;;;;;9.83;3.03;;;30.90;56.80;;;;;;5011844;28;20285;-82
2022/06/29 08:47:37;;;;;;;8.90;3.27;;;31.00;55.90;;;;;;5009305;28;20211;-82
2022/06/29 08:50:06;;;;;;;8.57;3.80;;;31.20;55.90;;;;;;5004664;28;20232;-83
2022/06/29 08:52:38;;;;;;;7.30;3.47;;;31.30;54.10;;;;;;5026158;28;20220;-82
2022/06/29 08:55:08;;;;;;;7.83;3.00;;;31.30;54.00;;;;;;5005812;28;20301;-81
2022/06/29 08:57:39;;;;;;;13.07;3.30;;;31.40;54.70;;;;;;5009669;28;20767;-82
2022/06/29 09:00:09;;;;;;;11.47;3.17;;;31.50;54.20;;;;;;5017507;28;20552;-81
2022/06/29 09:02:37;;;;;;;9.83;3.40;;;31.60;54.40;;;;;;5005446;28;20204;-83
2022/06/29 09:05:05;;;;;;;10.17;3.50;;;31.80;53.90;;;;;;5033917;28;20220;-82
2022/06/29 09:07:32;;;;;;;10.17;3.63;;;32.10;53.30;;;;;;5020252;28;20493;-83
2022/06/29 09:10:11;;;;;;;10.40;3.00;;;32.10;52.10;;;;;;5017712;28;20200;-81
2022/06/29 09:12:39;;;;;;;9.60;3.00;;;32.10;53.10;;;;;;5027133;28;20646;-81
2022/06/29 09:15:09;;;;;;;8.83;3.37;;;32.20;53.00;;;;;;5031864;28;20243;-82
2022/06/29 09:17:36;;;;;;;7.70;3.00;;;32.40;52.10;;;;;;5017683;28;20204;-81
2022/06/29 09:20:06;;;;;;;8.00;3.60;;;32.50;52.10;;;;;;5007262;28;20216;-81
2022/06/29 09:22:55;;;;;;;12.03;2.73;;;32.60;51.90;;;;;;5006396;28;20229;-82
2022/06/29 09:25:29;;;;;;;13.83;3.63;;;32.70;51.70;;;;;;5017420;28;20298;-82
2022/06/29 09:27:57;;;;;;;10.23;3.57;;;32.80;50.90;;;;;;5028785;28;20195;-82
2022/06/29 09:30:30;;;;;;;7.93;3.30;;;32.80;51.90;;;;;;5028116;28;20194;-82
2022/06/29 09:33:04;;;;;;;9.33;3.30;;;32.90;52.20;;;;;;5030696;28;20224;-82
2022/06/29 09:35:33;;;;;;;10.50;3.77;;;33.00;51.70;;;;;;5017757;28;20558;-82
2022/06/29 09:38:24;;;;;;;8.47;3.17;;;33.00;51.60;;;;;;5015568;28;20567;-81
2022/06/29 09:40:58;;;;;;;8.87;3.10;;;33.00;50.90;;;;;;5018762;28;20240;-81
2022/06/29 09:43:26;;;;;;;7.77;2.43;;;33.10;51.20;;;;;;5020494;28;20219;-82
2022/06/29 09:45:54;;;;;;;8.00;2.87;;;33.10;50.70;;;;;;5013842;28;20203;-80
2022/06/29 09:48:24;;;;;;;8.37;2.57;;;33.30;50.10;;;;;;5016029;28;20700;-81
2022/06/29 09:50:54;;;;;;;9.60;2.57;;;33.40;49.40;;;;;;5030029;28;20723;-82
2022/06/29 09:53:38;;;;;;;7.47;2.93;;;33.50;49.30;;;;;;5011264;28;20211;-81
2022/06/29 09:56:07;;;;;;;7.87;2.67;;;33.60;48.90;;;;;;5008677;28;20878;-81
2022/06/29 09:58:44;;;;;;;8.50;3.20;;;33.70;48.60;;;;;;5016066;28;20203;-81
2022/06/29 10:04:05;;;;;;;5.87;2.60;;;34.00;48.70;;;;;;5015304;28;20219;-83
2022/06/29 10:06:32;;;;;;;10.50;3.00;;;34.00;48.80;;;;;;5014236;28;20663;-82
2022/06/29 10:09:03;;;;;;;9.20;3.13;;;34.10;49.10;;;;;;5012793;28;20210;-81
2022/06/29 10:14:58;;;;;;;10.10;3.03;;;34.10;47.90;;;;;;5016697;28;20212;-80
2022/06/29 10:17:46;;;;;;;11.37;3.57;;;34.20;47.80;;;;;;5001656;28;20632;-81
2022/06/29 10:20:23;;;;;;;16.63;3.00;;;34.30;47.20;;;;;;5010849;28;20607;-81
2022/06/29 10:22:50;;;;;;;12.23;3.47;;;34.30;47.30;;;;;;5007839;28;20211;-81
2022/06/29 10:25:23;;;;;;;9.67;2.50;;;34.20;47.00;;;;;;5014324;28;20227;-82
2022/06/29 10:28:16;;;;;;;8.57;3.37;;;34.10;48.00;;;;;;5016541;28;20237;-81
2022/06/29 10:30:45;;;;;;;9.10;2.97;;;34.10;46.90;;;;;;5016623;28;20199;-81
2022/06/29 10:33:34;;;;;;;8.27;3.17;;;34.10;47.20;;;;;;5011248;28;20201;-80
2022/06/29 10:36:06;;;;;;;6.20;3.10;;;34.30;48.20;;;;;;5029016;28;20266;-81
2022/06/29 10:38:55;;;;;;;6.80;3.13;;;34.30;47.60;;;;;;5030899;28;20254;-81
2022/06/29 10:44:08;;;;;;;8.23;2.60;;;34.60;46.90;;;;;;5018583;28;20306;-81
2022/06/29 10:46:58;;;;;;;9.27;3.50;;;34.70;47.70;;;;;;5015534;28;20287;-81
2022/06/29 10:49:29;;;;;;;9.53;3.03;;;34.80;47.10;;;;;;5019510;28;20200;-81
2022/06/29 10:51:57;;;;;;;15.70;3.50;;;34.90;45.50;;;;;;5019113;28;20191;-81
2022/06/29 10:54:30;;;;;;;8.40;3.27;;;34.80;45.60;;;;;;5027534;28;20204;-83
2022/06/29 10:57:00;;;;;;;12.00;3.23;;;34.80;44.90;;;;;;5036793;28;20206;-80
2022/06/29 10:59:35;;;;;;;7.87;3.37;;;34.70;45.30;;;;;;5022641;28;20222;-82
2022/06/29 11:02:12;;;;;;;10.57;3.67;;;34.50;45.80;;;;;;5043540;28;20290;-80
2022/06/29 11:04:44;;;;;;;6.57;2.80;;;34.40;46.00;;;;;;5042061;28;20223;-81
2022/06/29 11:12:56;;;;;;;10.50;3.37;;;34.70;46.20;;;;;;5040300;28;20268;-81
2022/06/29 11:15:41;;;;;;;20.47;4.00;;;34.80;45.60;;;;;;5041940;28;20218;-81
2022/06/29 11:18:14;;;;;;;6.67;2.63;;;34.80;45.80;;;;;;5038425;28;20253;-82
2022/06/29 11:20:44;;;;;;;11.67;2.87;;;34.90;46.50;;;;;;5052378;28;20246;-80
2022/06/29 11:23:17;;;;;;;13.30;3.57;;;35.00;46.10;;;;;;5038183;28;20227;-81
2022/06/29 11:25:54;;;;;;;10.97;3.80;;;35.10;46.20;;;;;;5038054;28;20219;-81
2022/06/29 11:28:30;;;;;;;9.80;3.17;;;35.10;46.10;;;;;;5003920;28;20235;-81
2022/06/29 11:31:12;;;;;;;12.03;3.20;;;35.30;45.90;;;;;;5056624;28;20537;-83
2022/06/29 11:33:46;;;;;;;9.53;3.10;;;35.30;45.20;;;;;;5038850;28;20273;-83
2022/06/29 11:36:17;;;;;;;7.70;3.20;;;35.30;44.50;;;;;;5020988;28;20203;-81
2022/06/29 11:38:46;;;;;;;9.67;3.40;;;35.30;45.50;;;;;;5022252;28;20200;-83
2022/06/29 11:41:20;;;;;;;9.30;3.37;;;35.30;45.30;;;;;;5049458;28;20593;-81
2022/06/29 11:44:05;;;;;;;10.23;3.60;;;35.40;44.80;;;;;;5056686;28;20295;-81
2022/06/29 11:46:37;;;;;;;10.32;3.45;;;35.40;45.10;;;;;;5055406;28;20195;-82
2022/06/29 11:52:03;;;;;;;6.93;2.73;;;35.40;44.70;;;;;;5039261;28;20206;-82
2022/06/29 11:54:37;;;;;;;10.83;3.00;;;35.50;44.10;;;;;;5040729;28;20294;-81
2022/06/29 11:57:14;;;;;;;11.00;3.40;;;35.40;44.40;;;;;;5036121;28;20203;-82
2022/06/29 11:59:45;;;;;;;11.17;3.17;;;35.50;44.60;;;;;;5040887;28;20207;-82
2022/06/29 12:02:19;;;;;;;11.27;3.53;;;35.50;45.30;;;;;;5038833;28;20219;-82
2022/06/29 12:04:46;;;;;;;9.53;3.80;;;35.60;44.50;;;;;;5038998;28;20278;-81
2022/06/29 12:07:16;;;;;;;6.87;3.07;;;35.50;44.40;;;;;;5038608;28;20552;-81
2022/06/29 12:09:46;;;;;;;6.27;3.03;;;35.50;44.20;;;;;;5051508;28;20217;-82
2022/06/29 12:12:14;;;;;;;7.57;3.50;;;35.40;43.90;;;;;;5021512;28;20238;-82
2022/06/29 12:14:42;;;;;;;8.63;3.20;;;35.30;45.50;;;;;;5054162;28;20203;-82
2022/06/29 12:17:13;;;;;;;7.93;3.10;;;35.30;45.60;;;;;;5038863;28;20200;-81
2022/06/29 12:19:44;;;;;;;14.13;2.97;;;35.40;45.00;;;;;;5038697;28;20207;-82
2022/06/29 12:22:12;;;;;;;7.10;2.80;;;35.60;45.40;;;;;;5040882;28;20214;-80
2022/06/29 12:24:40;;;;;;;6.87;3.07;;;35.70;44.60;;;;;;5035569;28;20219;-81
2022/06/29 12:27:07;;;;;;;6.93;2.67;;;35.90;44.70;;;;;;5041393;28;20229;-82
2022/06/29 12:29:35;;;;;;;8.43;2.83;;;36.00;44.60;;;;;;5029625;28;20204;-82
2022/06/29 12:32:02;;;;;;;9.73;3.57;;;36.10;44.80;;;;;;5037601;28;20204;-81
2022/06/29 12:34:30;;;;;;;8.87;3.43;;;36.20;43.50;;;;;;5039196;28;20218;-81
2022/06/29 12:37:03;;;;;;;13.37;3.17;;;36.00;43.80;;;;;;5040470;28;20518;-81
2022/06/29 12:39:31;;;;;;;13.83;3.20;;;35.70;44.00;;;;;;5028768;28;20218;-82
2022/06/29 12:42:00;;;;;;;9.93;3.43;;;35.50;43.80;;;;;;5045986;28;20644;-82
2022/06/29 12:44:28;;;;;;;7.43;3.00;;;35.40;45.10;;;;;;5048896;28;20226;-82
2022/06/29 12:46:56;;;;;;;10.37;3.43;;;35.40;43.90;;;;;;5036532;28;20207;-83
2022/06/29 12:49:23;;;;;;;13.97;3.00;;;35.30;43.70;;;;;;5033668;28;20208;-82
2022/06/29 12:51:51;;;;;;;9.43;3.30;;;35.30;44.30;;;;;;5037403;28;20202;-81
2022/06/29 12:54:18;;;;;;;9.67;3.37;;;35.30;44.80;;;;;;5024223;28;20221;-82
2022/06/29 12:56:48;;;;;;;8.73;2.93;;;35.40;44.90;;;;;;5032828;28;20267;-82
2022/06/29 12:59:16;;;;;;;9.47;3.27;;;35.40;44.40;;;;;;5015393;28;20212;-80
2022/06/29 13:01:44;;;;;;;15.67;3.23;;;35.30;43.60;;;;;;5030173;28;20230;-79
2022/06/29 13:04:11;;;;;;;9.73;3.30;;;35.30;44.60;;;;;;5038373;28;20274;-80
2022/06/29 13:06:40;;;;;;;8.97;3.00;;;35.40;43.70;;;;;;5047905;28;20286;-80
2022/06/29 13:09:07;;;;;;;7.30;2.70;;;35.30;42.40;;;;;;5031259;28;20199;-79
2022/06/29 13:11:35;;;;;;;11.40;3.07;;;35.00;43.10;;;;;;5037816;28;20196;-80
2022/06/29 13:14:02;;;;;;;9.67;3.13;;;34.70;43.90;;;;;;5035768;28;20203;-79
2022/06/29 13:16:30;;;;;;;12.17;3.60;;;34.60;44.00;;;;;;5033662;28;20206;-80